createdAt,value
2023-01-11T00:01:37.790Z,9.00
2023-01-11T00:04:04.675Z,8.45
2023-01-11T00:06:31.296Z,9.88
2023-01-11T00:08:58.681Z,8.65
2023-01-11T00:11:50.536Z,10.27
2023-01-11T00:15:01.286Z,8.10
2023-01-11T00:17:29.317Z,9.93
2023-01-11T00:19:55.858Z,7.50
2023-01-11T00:22:22.401Z,7.57
2023-01-11T00:24:48.941Z,9.00
2023-01-11T00:27:15.576Z,8.55
2023-01-11T00:32:44.579Z,10.45
2023-01-11T00:35:13.240Z,8.57
2023-01-11T00:37:40.273Z,7.32
2023-01-11T00:40:26.425Z,9.45
2023-01-11T00:47:01.981Z,7.78
2023-01-11T00:57:14.267Z,8.43
2023-01-11T01:02:29.665Z,6.80
2023-01-11T01:04:56.259Z,8.82
2023-01-11T01:07:23.434Z,9.15
2023-01-11T01:09:49.970Z,8.90
2023-01-11T01:12:36.950Z,7.65
2023-01-11T01:17:38.837Z,7.97
2023-01-11T01:20:06.177Z,7.95
2023-01-11T01:22:32.821Z,8.85
2023-01-11T01:24:59.366Z,11.07
2023-01-11T01:27:26.525Z,8.52
2023-01-11T01:30:09.276Z,8.30
2023-01-11T01:33:06.650Z,9.20
2023-01-11T01:35:58.208Z,7.93
2023-01-11T01:46:10.534Z,8.45
2023-01-11T01:48:38.695Z,7.28
2023-01-11T01:51:07.954Z,7.10
2023-01-11T01:53:38.214Z,7.35
2023-01-11T01:56:18.333Z,7.03
2023-01-11T01:58:53.375Z,8.73
2023-01-11T02:01:39.204Z,8.55
2023-01-11T02:07:19.735Z,8.18
2023-01-11T02:10:13.919Z,7.50
2023-01-11T02:12:50.319Z,7.45
2023-01-11T02:15:19.155Z,6.78
2023-01-11T02:17:45.723Z,7.28
2023-01-11T02:20:56.052Z,6.32
2023-01-11T02:24:08.334Z,7.82
2023-01-11T02:26:49.379Z,10.35
2023-01-11T02:29:52.698Z,6.32
2023-01-11T02:57:48.122Z,6.55
2023-01-11T03:00:18.137Z,6.85
2023-01-11T03:02:45.093Z,7.53
2023-01-11T03:05:13.637Z,10.05
2023-01-11T03:08:00.431Z,7.60
2023-01-11T03:10:56.872Z,8.80
2023-01-11T03:18:53.446Z,12.27
2023-01-11T03:21:48.873Z,8.48
2023-01-11T03:25:05.291Z,10.40
2023-01-11T03:31:37.313Z,7.90
2023-01-11T03:34:40.340Z,8.63
2023-01-11T03:37:12.855Z,9.50
2023-01-11T03:39:51.182Z,11.52
2023-01-11T03:42:21.683Z,9.43
2023-01-11T03:45:26.708Z,9.52
2023-01-11T03:47:55.075Z,10.63
2023-01-11T03:50:23.354Z,10.50
2023-01-11T03:52:51.492Z,12.35
2023-01-11T04:09:40.431Z,9.90
2023-01-11T04:12:07.254Z,10.65
2023-01-11T04:14:33.834Z,9.57
2023-01-11T04:17:00.554Z,11.60
2023-01-11T04:19:27.136Z,12.18
2023-01-11T04:21:53.707Z,9.63
2023-01-11T04:24:20.460Z,12.27
2023-01-11T04:26:47.362Z,9.05
2023-01-11T04:29:14.021Z,8.75
2023-01-11T04:31:40.639Z,9.55
2023-01-11T04:34:07.526Z,10.45
2023-01-11T04:36:34.143Z,8.68
2023-01-11T04:39:00.921Z,9.35
2023-01-11T04:41:46.017Z,10.07
2023-01-11T04:44:12.634Z,12.25
2023-01-11T04:46:39.188Z,9.75
2023-01-11T04:49:05.747Z,11.85
2023-01-11T04:51:32.298Z,8.52
2023-01-11T04:53:59.945Z,10.82
2023-01-11T04:56:26.534Z,10.07
2023-01-11T04:59:24.137Z,9.38
2023-01-11T05:01:50.718Z,11.82
2023-01-11T05:04:17.356Z,10.48
2023-01-11T05:06:44.072Z,10.95
2023-01-11T05:12:45.912Z,10.95
2023-01-11T05:15:12.876Z,12.73
2023-01-11T05:17:39.485Z,11.75
2023-01-11T05:20:06.368Z,15.55
2023-01-11T05:22:33.042Z,14.10
2023-01-11T05:24:59.608Z,11.30
2023-01-11T05:27:26.317Z,12.63
2023-01-11T05:29:52.870Z,11.60
2023-01-11T05:32:19.541Z,13.80
2023-01-11T05:34:46.079Z,11.55
2023-01-11T05:37:15.289Z,11.80
2023-01-11T05:39:41.870Z,14.87
2023-01-11T05:42:08.586Z,13.95
2023-01-11T05:44:54.649Z,14.00
2023-01-11T05:47:40.598Z,12.02
2023-01-11T05:50:07.391Z,12.52
2023-01-11T05:52:33.964Z,12.13
2023-01-11T05:55:00.522Z,12.45
2023-01-11T06:00:23.081Z,11.63
2023-01-11T06:02:49.738Z,15.32
2023-01-11T06:05:16.556Z,16.90
2023-01-11T06:07:43.144Z,17.73
2023-01-11T06:10:10.449Z,17.12
2023-01-11T06:13:26.671Z,14.85
2023-01-11T06:16:36.227Z,11.60
2023-01-11T06:19:24.851Z,14.30
2023-01-11T06:24:26.767Z,21.60
2023-01-11T06:26:53.642Z,18.58
2023-01-11T06:29:20.577Z,18.62
2023-01-11T06:31:47.198Z,16.10
2023-01-11T06:34:13.749Z,13.88
2023-01-11T06:36:40.395Z,14.65
2023-01-11T06:39:07.208Z,12.80
2023-01-11T06:41:33.830Z,11.07
2023-01-11T06:44:00.381Z,12.43
2023-01-11T06:46:29.064Z,13.35
2023-01-11T06:48:55.868Z,11.32
2023-01-11T06:51:22.520Z,13.25
2023-01-11T06:53:49.109Z,11.52
2023-01-11T06:56:18.937Z,12.27
2023-01-11T06:58:47.137Z,12.30
2023-01-11T07:01:14.385Z,12.88
2023-01-11T07:06:16.706Z,10.60
2023-01-11T07:08:43.300Z,12.85
2023-01-11T07:11:10.675Z,12.27
2023-01-11T07:13:37.287Z,13.07
2023-01-11T07:16:04.089Z,11.18
2023-01-11T07:19:01.539Z,12.43
2023-01-11T07:21:53.221Z,13.27
2023-01-11T07:24:20.427Z,11.85
2023-01-11T07:26:46.963Z,15.27
2023-01-11T07:29:13.740Z,13.90
2023-01-11T07:31:40.315Z,14.82
2023-01-11T07:34:26.286Z,15.05
2023-01-11T07:36:52.840Z,13.50
2023-01-11T07:39:19.442Z,13.98
2023-01-11T07:42:04.771Z,15.07
2023-01-11T07:44:31.369Z,11.90
2023-01-11T07:46:58.275Z,15.20
2023-01-11T07:49:25.015Z,13.35
2023-01-11T07:51:54.198Z,12.18
2023-01-11T07:54:20.878Z,12.77
2023-01-11T07:56:47.509Z,11.60
2023-01-11T07:59:14.077Z,11.55
2023-01-11T08:01:40.660Z,10.52
2023-01-11T08:04:11.929Z,9.85
2023-01-11T08:06:39.291Z,11.68
2023-01-11T08:09:06.621Z,10.55
2023-01-11T08:11:51.719Z,10.50
2023-01-11T08:14:37.163Z,11.48
2023-01-11T08:17:03.899Z,11.35
2023-01-11T08:19:33.108Z,12.82
2023-01-11T08:21:59.788Z,14.93
2023-01-11T08:24:26.964Z,14.07
2023-01-11T08:26:53.540Z,14.18
2023-01-11T08:29:20.286Z,13.20
2023-01-11T08:31:48.141Z,15.35
2023-01-11T08:34:15.036Z,17.27
2023-01-11T08:36:41.674Z,15.57
2023-01-11T08:39:08.384Z,16.35
2023-01-11T08:41:35.158Z,13.18
2023-01-11T08:44:02.134Z,14.20
2023-01-11T08:46:28.724Z,13.65
2023-01-11T08:49:17.005Z,16.58
2023-01-11T08:57:27.522Z,12.48
2023-01-11T08:59:54.095Z,12.25
2023-01-11T09:10:30.852Z,9.35
2023-01-11T09:12:59.771Z,11.25
2023-01-11T09:15:27.764Z,8.75
2023-01-11T09:17:54.680Z,9.45
2023-01-11T09:20:21.756Z,11.35
2023-01-11T09:22:53.024Z,9.02
2023-01-11T09:25:20.560Z,7.97
2023-01-11T09:27:49.008Z,11.10
2023-01-11T09:30:21.908Z,10.95
2023-01-11T09:32:49.901Z,9.35
2023-01-11T09:35:17.974Z,9.32
2023-01-11T09:37:49.145Z,9.23
2023-01-11T09:40:55.232Z,9.63
2023-01-11T09:43:27.459Z,8.60
2023-01-11T09:45:57.935Z,8.02
2023-01-11T09:52:40.055Z,10.68
2023-01-11T09:55:15.502Z,11.10
2023-01-11T09:57:54.341Z,9.57
2023-01-11T10:01:03.365Z,6.80
2023-01-11T10:03:58.263Z,8.70
2023-01-11T10:06:29.873Z,6.85
2023-01-11T10:18:34.382Z,8.52
2023-01-11T10:19:37.568Z,8.48
2023-01-11T10:22:23.407Z,8.07
2023-01-11T10:27:30.881Z,8.02
2023-01-11T10:30:19.101Z,8.52
2023-01-11T10:33:06.567Z,8.60
2023-01-11T10:36:10.520Z,8.88
2023-01-11T10:38:56.591Z,8.68
2023-01-11T10:41:57.449Z,8.43
2023-01-11T10:44:36.929Z,7.70
2023-01-11T10:47:07.539Z,9.02
2023-01-11T10:49:58.895Z,6.60
2023-01-11T10:52:52.090Z,8.38
2023-01-11T10:55:46.663Z,8.10
2023-01-11T10:58:44.289Z,6.40
2023-01-11T11:01:36.609Z,9.35
2023-01-11T11:04:26.014Z,8.18
2023-01-11T11:07:22.328Z,9.63
2023-01-11T11:10:16.923Z,9.45
2023-01-11T11:12:51.039Z,10.77
2023-01-11T11:15:25.781Z,9.00
2023-01-11T11:17:54.126Z,10.93
2023-01-11T11:20:28.781Z,8.30
2023-01-11T11:22:58.550Z,7.65
2023-01-11T11:25:34.057Z,5.97
2023-01-11T11:28:14.745Z,6.20
2023-01-11T11:30:46.920Z,5.93
2023-01-11T11:33:31.157Z,4.78
2023-01-11T11:36:02.201Z,6.85
2023-01-11T11:38:34.849Z,7.22
2023-01-11T11:41:04.579Z,5.32
2023-01-11T11:43:33.349Z,5.60
2023-01-11T11:46:26.601Z,4.15
2023-01-11T11:49:15.724Z,2.97
2023-01-11T11:51:44.653Z,3.10
2023-01-11T11:54:43.296Z,3.53
2023-01-11T11:57:23.858Z,2.33
2023-01-11T12:00:01.124Z,2.85
2023-01-11T12:02:31.554Z,3.47
2023-01-11T12:05:00.662Z,3.40
2023-01-11T12:07:34.419Z,2.37
2023-01-11T12:10:07.292Z,2.97
2023-01-11T12:12:34.576Z,3.95
2023-01-11T12:15:15.342Z,3.42
2023-01-11T12:17:42.899Z,5.70
2023-01-11T12:20:31.152Z,5.62
2023-01-11T12:23:21.567Z,4.53
2023-01-11T12:26:19.012Z,4.95
2023-01-11T12:28:48.603Z,6.55
2023-01-11T12:31:54.281Z,7.95
2023-01-11T12:34:29.949Z,5.20
2023-01-11T12:36:56.452Z,6.85
2023-01-11T12:39:41.987Z,5.55
2023-01-11T12:42:23.632Z,5.32
2023-01-11T12:45:02.117Z,5.03
2023-01-11T12:47:40.614Z,6.75
2023-01-11T12:50:21.319Z,6.95
2023-01-11T12:52:59.282Z,5.35
2023-01-11T12:55:54.847Z,5.97
2023-01-11T12:58:45.542Z,5.70
2023-01-11T13:01:32.821Z,5.87
2023-01-11T13:04:02.117Z,5.15
2023-01-11T13:06:49.785Z,7.60
2023-01-11T13:09:45.667Z,7.32
2023-01-11T13:12:58.478Z,4.97
2023-01-11T13:15:48.947Z,6.62
2023-01-11T13:18:27.272Z,6.57
2023-01-11T13:21:02.158Z,8.40
2023-01-11T13:23:50.213Z,7.20
2023-01-11T13:26:22.957Z,8.45
2023-01-11T13:29:03.598Z,9.27
2023-01-11T13:31:33.616Z,9.85
2023-01-11T13:34:22.315Z,9.57
2023-01-11T13:36:56.931Z,8.65
2023-01-11T13:39:29.715Z,7.95
2023-01-11T13:42:00.551Z,8.98
2023-01-11T13:44:53.600Z,7.00
2023-01-11T13:47:40.229Z,9.30
2023-01-11T13:50:22.551Z,6.53
2023-01-11T13:53:03.495Z,7.70
2023-01-11T13:55:59.447Z,9.77
2023-01-11T13:58:35.601Z,9.05
2023-01-11T14:01:20.891Z,8.55
2023-01-11T14:04:15.712Z,6.45
2023-01-11T14:07:07.925Z,9.27
2023-01-11T14:09:37.350Z,9.65
2023-01-11T14:12:31.049Z,7.57
2023-01-11T14:15:21.799Z,10.73
2023-01-11T14:20:32.870Z,8.52
2023-01-11T14:23:38.523Z,8.52
2023-01-11T14:26:42.453Z,11.38
2023-01-11T14:29:30.804Z,11.25
2023-01-11T14:32:07.168Z,8.82
2023-01-11T14:35:04.732Z,10.23
2023-01-11T14:37:46.347Z,9.70
2023-01-11T14:40:37.229Z,9.77
2023-01-11T14:43:06.381Z,10.95
2023-01-11T14:45:46.682Z,11.15
2023-01-11T14:48:42.301Z,11.10
2023-01-11T14:59:24.317Z,12.65
2023-01-11T15:02:02.754Z,12.35
2023-01-11T15:04:33.291Z,12.43
2023-01-11T15:07:01.042Z,15.10
2023-01-11T15:09:48.608Z,12.70
2023-01-11T15:14:56.496Z,13.15
2023-01-11T15:17:45.379Z,12.18
2023-01-11T15:20:15.749Z,12.20
2023-01-11T15:25:26.540Z,17.02
2023-01-11T15:27:54.461Z,13.73
2023-01-11T15:30:30.207Z,13.45
2023-01-11T15:33:18.578Z,14.20
2023-01-11T15:35:57.398Z,15.80
2023-01-11T15:38:31.492Z,16.75
2023-01-11T15:41:21.286Z,18.10
2023-01-11T15:44:01.606Z,18.40
2023-01-11T15:47:06.347Z,16.55
2023-01-11T15:49:58.151Z,16.25
2023-01-11T15:52:24.706Z,16.85
2023-01-11T15:55:17.631Z,18.90
2023-01-11T15:57:47.105Z,16.60
2023-01-11T16:00:37.346Z,20.08
2023-01-11T16:05:44.978Z,13.48
2023-01-11T16:08:26.318Z,14.98
2023-01-11T16:14:20.929Z,17.75
2023-01-11T16:35:25.786Z,117.93
2023-01-11T16:40:40.421Z,62.97
2023-01-11T16:43:26.366Z,74.40
2023-01-11T16:45:56.921Z,38.88
2023-01-11T16:48:32.072Z,41.60
2023-01-11T16:51:18.085Z,36.00
2023-01-11T16:56:27.793Z,24.98
2023-01-11T16:59:19.499Z,22.52
2023-01-11T17:02:28.329Z,17.85
2023-01-11T17:04:55.953Z,14.18
2023-01-11T17:07:42.711Z,19.42
2023-01-11T17:10:29.819Z,14.55
2023-01-11T17:13:58.266Z,17.33
2023-01-11T17:19:18.878Z,20.58
2023-01-11T17:30:42.677Z,22.02
2023-01-11T17:38:55.856Z,23.05
2023-01-11T17:48:33.428Z,27.75
2023-01-11T17:53:50.559Z,30.52
2023-01-11T17:56:39.443Z,29.52
2023-01-11T17:59:25.233Z,32.92
2023-01-11T18:02:17.903Z,31.05
2023-01-11T18:07:21.515Z,31.23
2023-01-11T18:12:45.525Z,31.77
2023-01-11T18:15:18.401Z,27.87
2023-01-11T18:17:56.755Z,32.95
2023-01-11T18:20:29.376Z,30.75
2023-01-11T18:25:50.548Z,28.08
2023-01-11T18:31:12.538Z,30.30
2023-01-11T18:53:56.687Z,32.17
2023-01-11T18:56:23.311Z,30.58
2023-01-11T18:58:49.889Z,34.10
2023-01-11T19:01:21.185Z,28.67
2023-01-11T19:12:52.732Z,40.35
2023-01-11T19:15:21.431Z,39.78
2023-01-11T19:17:48.127Z,40.58
2023-01-11T19:20:15.068Z,37.95
2023-01-11T19:22:42.203Z,38.42
2023-01-11T19:25:27.455Z,38.97
2023-01-11T19:27:54.981Z,33.60
2023-01-11T19:30:21.740Z,37.35
2023-01-11T19:32:53.149Z,37.10
2023-01-11T19:35:20.437Z,41.55
2023-01-11T19:37:46.999Z,41.72
2023-01-11T19:40:15.724Z,39.03
2023-01-11T19:42:42.320Z,40.72
2023-01-11T19:45:09.350Z,42.72
2023-01-11T19:47:36.218Z,38.17
2023-01-11T19:50:02.838Z,36.70
2023-01-11T19:52:29.979Z,37.20
2023-01-11T19:54:56.853Z,38.60
2023-01-11T19:57:23.757Z,39.67
2023-01-11T19:59:50.801Z,35.72
2023-01-11T20:02:19.915Z,37.75
2023-01-11T20:04:46.805Z,38.90
2023-01-11T20:07:14.965Z,36.42
2023-01-11T20:09:41.820Z,45.88
2023-01-11T20:12:11.422Z,44.72
2023-01-11T20:14:40.307Z,39.75
2023-01-11T20:17:07.455Z,39.30
2023-01-11T20:19:34.022Z,37.20
2023-01-11T20:22:00.647Z,37.22
2023-01-11T20:24:30.357Z,37.53
2023-01-11T20:26:59.211Z,37.10
2023-01-11T20:29:26.172Z,36.08
2023-01-11T20:31:52.791Z,35.17
2023-01-11T20:34:19.462Z,37.30
2023-01-11T20:36:46.276Z,36.90
2023-01-11T20:39:12.915Z,36.47
2023-01-11T20:41:49.866Z,35.28
2023-01-11T20:44:18.414Z,38.00
2023-01-11T20:46:47.825Z,35.00
2023-01-11T20:49:15.247Z,36.45
2023-01-11T20:51:42.938Z,38.33
2023-01-11T20:54:10.113Z,34.85
2023-01-11T20:56:54.882Z,40.10
2023-01-11T20:59:21.584Z,36.72
2023-01-11T21:01:49.789Z,35.13
2023-01-11T21:04:17.869Z,34.78
2023-01-11T21:07:21.434Z,30.60
2023-01-11T21:10:13.098Z,37.22
2023-01-11T21:12:39.687Z,34.83
2023-01-11T21:15:10.478Z,34.65
2023-01-11T21:17:37.775Z,32.67
2023-01-11T21:20:05.016Z,36.10
2023-01-11T21:25:07.624Z,33.33
2023-01-11T21:27:34.180Z,35.63
2023-01-11T21:30:00.809Z,37.33
2023-01-11T21:32:27.365Z,39.97
2023-01-11T21:34:53.923Z,43.47
2023-01-11T21:37:24.491Z,38.30
2023-01-11T21:39:51.798Z,38.17
2023-01-11T21:45:24.902Z,36.28
2023-01-11T21:47:51.597Z,34.75
2023-01-11T21:50:21.331Z,37.70
2023-01-11T22:03:43.113Z,37.67
2023-01-11T22:06:10.475Z,35.50
2023-01-11T22:08:38.560Z,34.92
2023-01-11T22:11:06.747Z,35.38
2023-01-11T22:13:35.498Z,36.72
2023-01-11T22:18:37.723Z,37.95
2023-01-11T22:21:12.384Z,37.70
2023-01-11T22:23:39.735Z,36.63
2023-01-11T22:26:18.987Z,43.50
2023-01-11T22:29:05.662Z,38.72
2023-01-11T22:35:38.740Z,41.83
2023-01-11T22:38:05.528Z,42.00
2023-01-11T22:40:32.083Z,42.95
2023-01-11T22:42:58.632Z,45.22
2023-01-11T22:45:25.261Z,49.05
2023-01-11T22:48:10.547Z,45.90
2023-01-11T22:50:38.812Z,39.72
2023-01-11T22:53:05.375Z,44.50
2023-01-11T22:55:33.511Z,45.33
2023-01-11T22:58:00.046Z,46.65
2023-01-11T23:00:26.583Z,45.40
2023-01-11T23:02:53.326Z,48.08
2023-01-11T23:05:20.071Z,45.72
2023-01-11T23:07:46.634Z,37.80
2023-01-11T23:10:13.671Z,37.22
2023-01-11T23:16:22.663Z,39.70
2023-01-11T23:18:49.389Z,38.08
2023-01-11T23:21:16.808Z,35.30
2023-01-11T23:23:43.989Z,34.33
2023-01-11T23:26:17.876Z,34.72
2023-01-11T23:28:45.686Z,30.30
2023-01-11T23:31:29.441Z,39.38
2023-01-11T23:33:58.660Z,35.10
2023-01-11T23:36:30.697Z,38.08
2023-01-11T23:38:58.187Z,37.70
2023-01-11T23:45:17.074Z,47.38
2023-01-11T23:47:43.635Z,63.33
2023-01-11T23:50:10.481Z,73.57
2023-01-11T23:52:37.124Z,90.95
2023-01-11T23:55:03.913Z,95.75
2023-01-11T23:57:30.469Z,108.63
